Time;durP1;ratioP1;P1;durP2;ratioP2;P2;SDS_P1;SDS_P2;PMS_P1;PMS_P2;Temp;Humidity;BMP_temperature;BMP_pressure;BME280_temperature;BME280_humidity;BME280_pressure;Samples;Min_cycle;Max_cycle;Signal;HPM_P1;HPM_P2
2022/05/04 00:00:21;;;;;;;10.43;2.25;;;7.70;99.90;;;;;;5048922;28;20044;-70
2022/05/04 00:02:47;;;;;;;7.80;2.60;;;7.70;99.90;;;;;;5041191;28;20029;-72
2022/05/04 00:05:13;;;;;;;7.05;2.40;;;7.80;99.90;;;;;;5031961;28;20099;-70
2022/05/04 00:07:39;;;;;;;12.70;2.72;;;7.80;99.90;;;;;;5075959;28;20033;-69
2022/05/04 00:10:06;;;;;;;6.78;2.30;;;7.80;99.90;;;;;;5030176;28;20029;-71
2022/05/04 00:12:33;;;;;;;6.25;2.33;;;7.80;99.90;;;;;;5030802;28;20069;-71
2022/05/04 00:14:59;;;;;;;7.85;2.90;;;7.80;99.90;;;;;;5042865;28;20045;-71
2022/05/04 00:17:25;;;;;;;9.82;2.10;;;7.80;99.90;;;;;;5037312;28;20045;-71
2022/05/04 00:19:50;;;;;;;7.80;2.22;;;7.80;99.90;;;;;;5049347;28;20034;-71
2022/05/04 00:22:21;;;;;;;4.40;2.15;;;7.80;99.90;;;;;;5048633;28;20044;-73
2022/05/04 00:24:46;;;;;;;4.90;1.85;;;7.80;99.90;;;;;;5054428;28;20040;-73
2022/05/04 00:27:15;;;;;;;5.20;2.05;;;7.80;99.90;;;;;;5048343;28;20032;-71
2022/05/04 00:29:44;;;;;;;7.22;1.70;;;7.80;99.90;;;;;;5075372;28;20051;-71
2022/05/04 00:32:15;;;;;;;7.85;2.30;;;7.80;99.90;;;;;;5044453;28;20060;-70
2022/05/04 00:34:41;;;;;;;8.43;2.35;;;7.80;99.90;;;;;;5064536;28;20658;-71
2022/05/04 00:37:07;;;;;;;8.50;2.40;;;7.80;99.90;;;;;;5033978;28;20412;-73
2022/05/04 00:39:33;;;;;;;11.70;2.67;;;7.90;99.90;;;;;;5036699;28;20040;-71
2022/05/04 00:42:16;;;;;;;10.25;2.50;;;7.80;99.90;;;;;;5024991;28;20267;-72
2022/05/04 00:44:44;;;;;;;7.10;2.28;;;7.90;99.90;;;;;;5070477;28;20053;-72
2022/05/04 00:47:11;;;;;;;9.48;2.55;;;7.80;99.90;;;;;;5038007;28;20041;-71
2022/05/04 00:49:37;;;;;;;11.82;2.22;;;7.90;99.90;;;;;;5043697;28;20078;-70
2022/05/04 00:52:04;;;;;;;8.27;2.13;;;7.90;99.90;;;;;;5077053;28;20032;-72
2022/05/04 00:54:31;;;;;;;6.47;2.08;;;7.90;99.90;;;;;;5085395;28;20037;-73
2022/05/04 00:56:57;;;;;;;5.03;2.30;;;7.90;99.90;;;;;;5072097;28;20025;-71
2022/05/04 00:59:23;;;;;;;7.93;2.17;;;7.90;99.90;;;;;;5057220;28;20108;-70
2022/05/04 01:01:49;;;;;;;7.72;2.22;;;7.80;99.90;;;;;;5053527;28;20037;-71
2022/05/04 01:04:15;;;;;;;6.45;2.50;;;7.90;99.90;;;;;;5048742;28;20033;-69
2022/05/04 01:06:41;;;;;;;7.30;2.55;;;7.90;99.90;;;;;;5063925;28;20022;-71
2022/05/04 01:09:07;;;;;;;6.93;2.40;;;7.80;99.90;;;;;;5049744;28;20375;-71
2022/05/04 01:11:32;;;;;;;7.32;2.22;;;7.80;99.90;;;;;;5060355;28;20243;-71
2022/05/04 01:14:07;;;;;;;6.82;2.08;;;7.80;99.90;;;;;;5044803;28;20029;-72
2022/05/04 01:16:33;;;;;;;7.30;2.20;;;7.80;99.90;;;;;;5076101;28;20040;-72
2022/05/04 01:19:00;;;;;;;4.97;2.17;;;7.90;99.90;;;;;;5048133;28;20083;-71
2022/05/04 01:21:26;;;;;;;4.93;2.08;;;7.80;99.90;;;;;;5072423;28;21543;-69
2022/05/04 01:23:56;;;;;;;5.43;2.25;;;7.80;99.90;;;;;;5043813;28;20272;-69
2022/05/04 01:26:22;;;;;;;6.07;2.20;;;7.80;99.90;;;;;;5075692;28;20395;-69
2022/05/04 01:28:47;;;;;;;4.85;1.85;;;7.70;99.90;;;;;;5038241;28;20028;-71
2022/05/04 01:31:13;;;;;;;3.92;1.98;;;7.70;99.90;;;;;;5053654;28;20030;-70
2022/05/04 01:33:40;;;;;;;7.55;1.92;;;7.80;99.90;;;;;;5033784;28;20259;-69
2022/05/04 01:36:09;;;;;;;5.30;2.10;;;7.80;99.90;;;;;;5048139;28;20048;-70
2022/05/04 01:38:35;;;;;;;9.93;2.33;;;7.80;99.90;;;;;;5049436;28;20094;-71
2022/05/04 01:41:02;;;;;;;9.18;2.20;;;7.80;99.90;;;;;;5042365;28;20075;-71
2022/05/04 01:43:28;;;;;;;5.97;2.03;;;7.90;99.90;;;;;;5081769;28;20047;-69
2022/05/04 01:45:53;;;;;;;3.47;1.85;;;7.90;99.90;;;;;;5037712;28;20036;-73
2022/05/04 01:48:20;;;;;;;8.27;2.38;;;7.90;99.90;;;;;;5060652;28;20037;-71
2022/05/04 01:50:46;;;;;;;5.35;2.20;;;7.80;99.90;;;;;;5055190;28;20036;-72
2022/05/04 01:53:12;;;;;;;5.28;2.05;;;7.80;99.90;;;;;;5079477;28;20041;-70
2022/05/04 01:55:37;;;;;;;6.18;2.20;;;7.80;99.90;;;;;;5060017;28;20046;-69
2022/05/04 01:58:04;;;;;;;6.30;2.88;;;7.80;99.90;;;;;;5052003;28;20113;-70
2022/05/04 02:00:30;;;;;;;5.95;1.85;;;7.80;99.90;;;;;;5038838;28;20029;-70
2022/05/04 02:02:56;;;;;;;6.65;2.10;;;7.80;99.90;;;;;;5066483;28;20067;-70
2022/05/04 02:05:22;;;;;;;7.35;2.00;;;7.80;99.90;;;;;;5050800;28;20032;-70
2022/05/04 02:07:49;;;;;;;8.55;2.50;;;7.80;99.90;;;;;;5064889;28;20032;-69
2022/05/04 02:10:15;;;;;;;5.82;2.45;;;7.80;99.90;;;;;;5031301;28;20227;-70
2022/05/04 02:12:41;;;;;;;6.05;2.42;;;7.80;99.90;;;;;;5042712;28;20028;-69
2022/05/04 02:15:08;;;;;;;5.95;2.13;;;7.80;99.90;;;;;;5062445;28;20032;-70
2022/05/04 02:17:35;;;;;;;5.38;2.20;;;7.90;99.90;;;;;;5060216;28;20055;-70
2022/05/04 02:20:01;;;;;;;6.47;2.38;;;7.90;99.90;;;;;;5048751;28;20033;-70
2022/05/04 02:22:27;;;;;;;9.23;2.35;;;7.80;99.90;;;;;;5064067;28;20045;-70
2022/05/04 02:24:52;;;;;;;6.22;1.98;;;7.80;99.90;;;;;;5061685;28;20271;-70
2022/05/04 02:27:19;;;;;;;8.27;2.25;;;7.80;99.90;;;;;;5084370;28;20310;-71
2022/05/04 02:29:44;;;;;;;7.65;2.45;;;7.80;99.90;;;;;;5047605;28;20028;-71
2022/05/04 02:32:10;;;;;;;7.95;2.78;;;7.80;99.90;;;;;;5036066;28;20029;-69
2022/05/04 02:40:11;;;;;;;8.07;2.40;;;7.80;99.90;;;;;;5048775;28;20215;-70
2022/05/04 02:42:37;;;;;;;5.93;2.10;;;7.80;99.90;;;;;;5082925;28;20028;-70
2022/05/04 02:45:06;;;;;;;4.25;2.63;;;7.90;99.90;;;;;;5046360;28;20033;-70
2022/05/04 02:47:32;;;;;;;5.00;2.15;;;7.70;99.90;;;;;;5068842;28;20036;-71
2022/05/04 02:49:57;;;;;;;7.47;2.35;;;7.70;99.90;;;;;;5029940;28;20037;-71
2022/05/04 02:52:23;;;;;;;4.22;1.73;;;7.70;99.90;;;;;;5075466;28;20025;-69
2022/05/04 02:54:49;;;;;;;6.15;2.13;;;7.70;99.90;;;;;;5055504;28;20223;-71
2022/05/04 02:57:14;;;;;;;5.38;2.30;;;7.70;99.90;;;;;;5050327;28;20105;-70
2022/05/04 02:59:40;;;;;;;8.63;2.13;;;7.70;99.90;;;;;;5047937;28;20328;-70
2022/05/04 03:04:50;;;;;;;7.15;2.10;;;7.70;99.90;;;;;;5041403;28;20052;-69
2022/05/04 03:07:16;;;;;;;6.95;2.00;;;7.60;99.90;;;;;;5071747;28;20037;-69
2022/05/04 03:09:42;;;;;;;5.50;1.92;;;7.70;99.90;;;;;;5059341;28;20273;-70
2022/05/04 03:12:08;;;;;;;5.93;2.17;;;7.60;99.90;;;;;;5021516;28;20032;-70
2022/05/04 03:14:34;;;;;;;6.47;2.17;;;7.60;99.90;;;;;;5033213;28;20025;-71
2022/05/04 03:16:59;;;;;;;6.15;2.10;;;7.60;99.90;;;;;;5034967;28;20139;-69
2022/05/04 03:19:26;;;;;;;7.47;1.90;;;7.60;99.90;;;;;;5041547;28;20264;-69
2022/05/04 03:21:52;;;;;;;8.73;2.88;;;7.60;99.90;;;;;;5084805;28;20033;-71
2022/05/04 03:24:18;;;;;;;5.82;2.80;;;7.60;99.90;;;;;;5032108;28;20041;-70
2022/05/04 03:26:44;;;;;;;4.82;1.80;;;7.70;99.90;;;;;;5058928;28;20033;-70
2022/05/04 03:29:11;;;;;;;6.25;2.42;;;7.60;99.90;;;;;;5032971;28;20044;-71
2022/05/04 03:31:37;;;;;;;4.68;1.80;;;7.60;99.90;;;;;;5079908;28;20104;-70
2022/05/04 03:34:03;;;;;;;7.35;2.50;;;7.60;99.90;;;;;;5038258;28;20043;-71
2022/05/04 03:36:28;;;;;;;5.15;2.10;;;7.70;99.90;;;;;;5055062;28;20021;-71
2022/05/04 03:38:54;;;;;;;6.45;2.42;;;7.70;99.90;;;;;;5090923;28;20064;-71
2022/05/04 03:41:23;;;;;;;8.43;1.95;;;7.60;99.90;;;;;;5037774;28;20193;-72
2022/05/04 03:43:49;;;;;;;5.22;2.17;;;7.60;99.90;;;;;;5056865;28;20044;-71
2022/05/04 03:46:23;;;;;;;6.75;1.83;;;7.60;99.90;;;;;;5076586;28;20036;-71
2022/05/04 03:48:52;;;;;;;9.07;2.08;;;7.60;99.90;;;;;;5038915;28;20086;-70
2022/05/04 03:51:21;;;;;;;6.18;1.70;;;7.50;99.90;;;;;;5034191;28;20036;-69
2022/05/04 03:53:48;;;;;;;5.38;2.13;;;7.70;99.90;;;;;;5080213;28;20057;-71
2022/05/04 03:56:15;;;;;;;4.97;1.88;;;7.70;99.90;;;;;;5063600;28;20199;-72
2022/05/04 03:58:41;;;;;;;7.38;1.88;;;7.70;99.90;;;;;;5081122;28;20045;-70
2022/05/04 04:01:06;;;;;;;5.38;2.00;;;7.70;99.90;;;;;;5049326;28;20100;-70
2022/05/04 04:03:32;;;;;;;6.63;2.38;;;7.70;99.90;;;;;;5045133;28;20242;-69
2022/05/04 04:05:59;;;;;;;6.18;2.40;;;7.80;99.90;;;;;;5043942;28;20020;-71
2022/05/04 04:08:25;;;;;;;7.90;1.90;;;7.80;99.90;;;;;;5090134;28;20033;-69
2022/05/04 04:10:51;;;;;;;10.43;2.20;;;7.80;99.90;;;;;;5068638;28;20075;-70
2022/05/04 04:13:17;;;;;;;7.68;2.38;;;7.80;99.90;;;;;;5034742;28;20052;-69
2022/05/04 04:15:43;;;;;;;5.47;2.08;;;7.80;99.90;;;;;;5053061;28;20036;-69
2022/05/04 04:18:09;;;;;;;6.68;1.85;;;7.80;99.90;;;;;;5059586;28;20025;-70
2022/05/04 04:23:19;;;;;;;7.68;1.98;;;7.80;99.90;;;;;;5078106;28;20429;-70
2022/05/04 04:25:45;;;;;;;6.28;2.60;;;7.80;99.90;;;;;;5068565;28;20032;-70
2022/05/04 04:28:11;;;;;;;10.60;3.05;;;7.70;99.90;;;;;;5063210;28;20325;-70
2022/05/04 04:30:40;;;;;;;5.20;2.03;;;7.70;99.90;;;;;;5047599;28;20021;-69
2022/05/04 04:33:07;;;;;;;7.63;2.22;;;7.70;99.90;;;;;;5098347;28;20079;-71
2022/05/04 04:35:36;;;;;;;4.95;1.80;;;7.70;99.90;;;;;;5069194;28;20032;-69
2022/05/04 04:38:02;;;;;;;8.45;2.33;;;7.70;99.90;;;;;;5049562;28;20241;-69
2022/05/04 04:40:28;;;;;;;4.50;2.20;;;7.80;99.90;;;;;;5062871;28;20307;-70
2022/05/04 04:42:54;;;;;;;4.97;2.30;;;7.80;99.90;;;;;;5050394;28;20040;-70
2022/05/04 04:45:20;;;;;;;6.15;1.80;;;7.80;99.90;;;;;;5055943;28;20368;-70
2022/05/04 04:47:46;;;;;;;3.95;1.88;;;7.80;99.90;;;;;;5078041;28;20055;-71
2022/05/04 04:50:12;;;;;;;4.40;1.80;;;7.80;99.90;;;;;;5046284;28;20039;-70
2022/05/04 04:52:38;;;;;;;5.32;1.85;;;7.80;99.90;;;;;;5067682;28;20033;-70
2022/05/04 04:55:04;;;;;;;4.68;2.03;;;7.90;99.90;;;;;;5080269;28;20025;-70
2022/05/04 04:57:30;;;;;;;8.43;2.33;;;7.90;99.90;;;;;;5057266;28;20044;-70
2022/05/04 04:59:56;;;;;;;7.60;1.60;;;7.90;99.90;;;;;;5066921;28;20067;-71
2022/05/04 05:02:21;;;;;;;6.18;2.13;;;7.90;99.90;;;;;;5062474;28;20048;-72
2022/05/04 05:04:47;;;;;;;6.85;2.15;;;8.00;99.90;;;;;;5062782;28;20235;-71
2022/05/04 05:07:13;;;;;;;7.15;2.42;;;8.00;99.90;;;;;;5067254;28;20154;-70
2022/05/04 05:09:38;;;;;;;4.70;2.10;;;8.00;99.90;;;;;;5072975;28;20314;-70
2022/05/04 05:12:05;;;;;;;6.70;2.70;;;8.00;99.90;;;;;;5046193;28;20215;-70
2022/05/04 05:17:14;;;;;;;6.63;2.00;;;8.00;99.90;;;;;;5084704;28;20081;-69
2022/05/04 05:19:40;;;;;;;10.02;2.65;;;8.00;99.90;;;;;;5049458;28;20036;-70
2022/05/04 05:22:06;;;;;;;5.97;2.20;;;8.10;99.90;;;;;;5043313;28;20047;-70
2022/05/04 05:24:32;;;;;;;5.20;2.22;;;8.10;99.90;;;;;;5044401;28;20040;-70
2022/05/04 05:26:57;;;;;;;5.50;2.30;;;8.20;99.90;;;;;;5053669;28;20105;-70
2022/05/04 05:29:23;;;;;;;6.03;2.75;;;8.20;99.90;;;;;;5051500;28;20028;-70
2022/05/04 05:31:49;;;;;;;5.45;2.10;;;8.20;99.90;;;;;;5057696;28;20520;-69
2022/05/04 05:34:14;;;;;;;3.65;2.10;;;8.20;99.90;;;;;;5050438;28;20035;-71
2022/05/04 05:36:40;;;;;;;8.30;2.70;;;8.20;99.90;;;;;;5043469;28;20032;-71
2022/05/04 05:39:06;;;;;;;7.07;2.28;;;8.40;99.90;;;;;;5045053;28;20135;-71
2022/05/04 05:41:32;;;;;;;6.05;1.98;;;8.30;99.90;;;;;;5044800;28;20040;-72
2022/05/04 05:43:57;;;;;;;8.65;1.95;;;8.30;99.90;;;;;;5048632;28;20282;-69
2022/05/04 05:46:23;;;;;;;5.97;2.30;;;8.30;99.90;;;;;;5049718;28;20052;-69
2022/05/04 05:48:49;;;;;;;7.43;2.58;;;8.30;99.90;;;;;;5063258;28;20078;-69
2022/05/04 05:51:14;;;;;;;5.88;1.88;;;8.40;99.90;;;;;;5074815;28;20027;-70
2022/05/04 05:53:40;;;;;;;5.70;1.88;;;8.40;99.90;;;;;;5079997;28;20028;-70
2022/05/04 05:56:06;;;;;;;6.00;1.85;;;8.30;99.90;;;;;;5070995;28;20036;-69
2022/05/04 05:58:32;;;;;;;5.90;2.35;;;8.30;99.90;;;;;;5054095;28;20333;-69
2022/05/04 06:00:58;;;;;;;6.20;2.10;;;8.30;99.90;;;;;;5072009;28;20041;-69
2022/05/04 06:03:24;;;;;;;4.53;1.95;;;8.20;99.90;;;;;;5068754;28;20044;-69
2022/05/04 06:05:50;;;;;;;8.80;1.95;;;8.20;99.90;;;;;;5049318;28;20064;-70
2022/05/04 06:08:15;;;;;;;7.65;2.30;;;8.20;99.90;;;;;;5085203;28;20033;-70
2022/05/04 06:10:41;;;;;;;7.22;1.80;;;8.30;99.90;;;;;;5048748;28;20029;-71
2022/05/04 06:13:07;;;;;;;6.53;2.47;;;8.40;99.90;;;;;;5058317;28;20215;-70
2022/05/04 06:15:33;;;;;;;4.85;1.83;;;8.40;99.90;;;;;;5052228;28;20503;-69
2022/05/04 06:17:59;;;;;;;5.22;1.83;;;8.40;99.90;;;;;;5089267;28;20024;-69
2022/05/04 06:20:26;;;;;;;5.85;1.65;;;8.40;99.90;;;;;;5060835;28;20044;-69
2022/05/04 06:22:52;;;;;;;7.60;2.30;;;8.50;99.90;;;;;;5071886;28;20034;-69
2022/05/04 06:25:18;;;;;;;6.32;1.83;;;8.50;99.90;;;;;;5045224;28;20036;-70
2022/05/04 06:27:44;;;;;;;12.10;2.10;;;8.50;99.90;;;;;;5077625;28;20042;-70
2022/05/04 06:35:39;;;;;;;6.88;2.15;;;8.70;99.90;;;;;;5058069;28;20579;-69
2022/05/04 06:38:05;;;;;;;5.78;2.28;;;8.60;99.90;;;;;;5062678;28;20289;-69
2022/05/04 06:40:31;;;;;;;6.90;1.90;;;8.60;99.90;;;;;;5051583;28;20231;-70
2022/05/04 06:42:57;;;;;;;9.82;2.22;;;8.60;99.90;;;;;;5088564;28;20041;-70
2022/05/04 06:45:22;;;;;;;4.15;1.85;;;8.60;99.90;;;;;;5044953;28;20084;-69
2022/05/04 06:47:48;;;;;;;8.75;1.98;;;8.60;99.90;;;;;;5056666;28;20051;-69
2022/05/04 06:50:14;;;;;;;5.30;1.60;;;8.80;99.90;;;;;;5058895;28;20062;-69
2022/05/04 06:52:40;;;;;;;7.35;1.35;;;8.90;99.90;;;;;;5050373;28;20059;-69
2022/05/04 06:55:07;;;;;;;6.03;1.77;;;9.00;99.90;;;;;;5044145;28;20055;-69
2022/05/04 06:57:33;;;;;;;5.97;1.55;;;9.10;99.90;;;;;;5048386;28;20394;-72
2022/05/04 06:59:59;;;;;;;6.45;1.60;;;9.20;99.90;;;;;;5044291;28;20033;-70
2022/05/04 07:02:26;;;;;;;5.95;2.00;;;9.30;99.90;;;;;;5046261;28;20048;-70
2022/05/04 07:04:51;;;;;;;4.72;1.63;;;9.40;99.90;;;;;;5085595;28;20033;-70
2022/05/04 07:07:17;;;;;;;4.80;2.03;;;9.50;99.90;;;;;;5077385;28;20066;-70
2022/05/04 07:09:43;;;;;;;8.43;2.85;;;9.60;99.90;;;;;;5064334;28;20037;-70
2022/05/04 07:12:09;;;;;;;6.75;1.75;;;9.70;99.90;;;;;;5049573;28;20241;-71
2022/05/04 07:14:34;;;;;;;7.43;2.42;;;9.50;99.90;;;;;;5074771;28;20096;-71
2022/05/04 07:17:00;;;;;;;7.32;2.03;;;9.70;99.90;;;;;;5061905;28;20347;-68
2022/05/04 07:19:26;;;;;;;5.20;1.63;;;9.90;99.90;;;;;;5059827;28;20090;-69
2022/05/04 07:21:52;;;;;;;5.70;1.90;;;9.80;99.90;;;;;;5052243;28;20036;-68
2022/05/04 07:24:18;;;;;;;6.93;1.42;;;9.70;99.90;;;;;;5058321;28;20039;-69
2022/05/04 07:26:44;;;;;;;6.15;1.80;;;9.70;99.90;;;;;;5076488;28;20078;-71
2022/05/04 07:29:10;;;;;;;4.53;1.75;;;9.90;99.90;;;;;;5075824;28;20193;-69
2022/05/04 07:31:38;;;;;;;6.28;1.67;;;9.70;99.90;;;;;;5040354;28;20024;-71
2022/05/04 07:34:04;;;;;;;5.93;1.65;;;10.00;99.90;;;;;;5078283;28;20055;-70
2022/05/04 07:36:30;;;;;;;7.32;1.70;;;10.00;99.90;;;;;;5050973;28;20111;-70
2022/05/04 07:38:56;;;;;;;5.30;1.52;;;9.90;99.90;;;;;;5065152;28;20191;-69
2022/05/04 07:44:06;;;;;;;4.68;1.50;;;10.10;99.90;;;;;;5077151;28;20122;-70
2022/05/04 07:46:33;;;;;;;7.32;2.10;;;10.30;99.90;;;;;;5040570;28;20045;-69
2022/05/04 07:48:59;;;;;;;5.95;1.80;;;10.30;99.90;;;;;;5078989;28;20056;-70
2022/05/04 07:51:25;;;;;;;5.82;1.65;;;10.20;99.90;;;;;;5045245;28;20055;-70
2022/05/04 07:53:51;;;;;;;3.97;1.50;;;10.20;99.90;;;;;;5043276;28;20318;-69
2022/05/04 07:56:17;;;;;;;4.70;1.63;;;10.10;99.90;;;;;;5072345;28;20111;-70
2022/05/04 07:58:42;;;;;;;12.27;2.65;;;10.40;99.90;;;;;;5054714;28;20064;-69
2022/05/04 08:06:37;;;;;;;6.03;1.73;;;10.50;99.90;;;;;;5060775;28;20116;-72
2022/05/04 08:09:03;;;;;;;4.63;1.65;;;10.30;99.90;;;;;;5091349;28;20024;-69
2022/05/04 08:11:29;;;;;;;7.63;1.90;;;10.00;99.90;;;;;;5062889;28;20327;-70
2022/05/04 08:13:55;;;;;;;5.57;1.70;;;10.10;99.90;;;;;;5077233;28;20039;-70
2022/05/04 08:16:21;;;;;;;4.60;1.90;;;10.30;99.90;;;;;;5059296;28;20037;-68
2022/05/04 08:18:47;;;;;;;6.63;2.10;;;10.40;99.90;;;;;;5069550;28;20037;-70
2022/05/04 08:21:12;;;;;;;5.07;1.88;;;10.40;99.90;;;;;;5095566;28;20082;-71
2022/05/04 08:23:38;;;;;;;7.25;1.80;;;10.40;99.90;;;;;;5058861;28;20240;-69
2022/05/04 08:26:04;;;;;;;5.13;1.80;;;10.50;99.90;;;;;;5075534;28;20093;-70
2022/05/04 08:28:31;;;;;;;10.32;1.88;;;10.60;99.90;;;;;;5065332;28;20081;-68
2022/05/04 08:30:57;;;;;;;3.35;1.77;;;10.70;99.90;;;;;;5069273;28;20246;-70
2022/05/04 08:33:23;;;;;;;6.05;1.85;;;10.70;99.90;;;;;;5061226;28;20048;-70
2022/05/04 08:35:49;;;;;;;7.65;2.08;;;10.60;99.90;;;;;;5059965;28;20321;-69
2022/05/04 08:38:15;;;;;;;4.88;1.63;;;10.50;99.90;;;;;;5076858;28;20031;-69
2022/05/04 08:40:40;;;;;;;4.90;1.75;;;10.30;99.90;;;;;;5045358;28;20048;-69
2022/05/04 08:43:07;;;;;;;5.90;1.60;;;10.30;99.90;;;;;;5066304;28;20267;-69
2022/05/04 08:45:38;;;;;;;5.60;1.67;;;10.60;99.90;;;;;;5081930;28;20186;-69
2022/05/04 08:48:08;;;;;;;4.63;1.50;;;10.80;99.90;;;;;;5045222;28;20188;-69
2022/05/04 08:50:35;;;;;;;4.07;1.90;;;10.70;99.90;;;;;;5064054;28;20064;-69
2022/05/04 08:53:05;;;;;;;6.95;2.38;;;10.50;99.90;;;;;;5048041;28;20064;-70
2022/05/04 08:55:31;;;;;;;6.13;1.88;;;10.60;99.90;;;;;;5088489;28;20037;-69
2022/05/04 08:57:57;;;;;;;4.85;1.65;;;10.60;99.90;;;;;;5053733;28;20100;-70
2022/05/04 09:00:23;;;;;;;5.97;1.95;;;10.50;99.90;;;;;;5064334;28;20040;-68
2022/05/04 09:02:50;;;;;;;7.45;2.10;;;10.80;99.90;;;;;;5061489;28;20076;-68
2022/05/04 09:05:23;;;;;;;6.30;2.15;;;10.70;99.90;;;;;;5052018;28;20040;-70
2022/05/04 09:07:51;;;;;;;5.95;2.20;;;11.00;99.90;;;;;;5041956;28;20040;-69
2022/05/04 09:10:22;;;;;;;4.30;1.65;;;11.00;99.90;;;;;;5053516;28;20036;-69
2022/05/04 09:12:52;;;;;;;5.53;1.88;;;10.90;99.90;;;;;;5094953;28;20115;-69
2022/05/04 09:15:28;;;;;;;8.35;1.80;;;11.00;99.90;;;;;;5059118;28;20044;-70
2022/05/04 09:18:03;;;;;;;7.45;1.90;;;11.00;99.90;;;;;;5092628;28;20051;-71
2022/05/04 09:20:45;;;;;;;4.90;1.95;;;10.70;99.90;;;;;;5045459;28;20051;-70
2022/05/04 09:23:31;;;;;;;6.38;1.95;;;10.70;99.90;;;;;;5061003;28;20086;-70
2022/05/04 09:25:58;;;;;;;6.75;2.05;;;11.20;99.90;;;;;;5044359;28;20036;-69
2022/05/04 09:28:26;;;;;;;4.78;1.70;;;11.10;99.90;;;;;;5077454;28;20235;-70
2022/05/04 09:30:57;;;;;;;7.15;2.17;;;11.40;99.90;;;;;;5074858;28;20060;-70
2022/05/04 09:33:28;;;;;;;3.75;1.70;;;11.10;99.90;;;;;;5085207;28;20040;-71
2022/05/04 09:35:55;;;;;;;4.82;1.52;;;11.10;99.90;;;;;;5026530;28;20108;-69
2022/05/04 09:46:53;;;;;;;4.63;2.30;;;11.50;99.90;;;;;;5075586;28;20036;-71
2022/05/04 09:49:20;;;;;;;8.98;2.35;;;11.60;99.90;;;;;;5067709;28;20065;-70
2022/05/04 09:51:52;;;;;;;6.55;1.92;;;11.90;99.90;;;;;;5022287;28;20037;-70
2022/05/04 09:54:27;;;;;;;5.57;2.08;;;11.90;99.90;;;;;;5060528;28;20223;-70
2022/05/04 09:56:53;;;;;;;;;;;11.70;99.90;;;;;;5093542;28;20355;-70
2022/05/04 09:59:31;;;;;;;5.28;1.90;;;11.30;99.90;;;;;;5075485;28;19956;-74
2022/05/04 10:01:59;;;;;;;7.00;2.33;;;11.70;99.90;;;;;;5078070;28;20191;-71
2022/05/04 10:04:26;;;;;;;3.45;1.73;;;11.80;99.90;;;;;;5070997;28;20052;-70
2022/05/04 10:06:55;;;;;;;5.85;1.83;;;11.90;99.90;;;;;;5059935;28;20206;-72
2022/05/04 10:09:22;;;;;;;4.50;2.15;;;11.90;99.90;;;;;;5064165;28;20043;-70
2022/05/04 10:11:56;;;;;;;6.90;2.00;;;12.20;99.90;;;;;;5057654;28;20072;-69
2022/05/04 10:14:23;;;;;;;6.30;1.95;;;12.10;99.90;;;;;;5073182;28;20044;-70
2022/05/04 10:16:52;;;;;;;3.83;1.83;;;12.20;99.90;;;;;;5042894;28;20083;-71
2022/05/04 10:19:25;;;;;;;7.22;2.50;;;12.10;99.90;;;;;;5059128;28;20051;-70
2022/05/04 10:21:54;;;;;;;6.43;2.10;;;12.50;99.90;;;;;;5081259;28;20055;-70
2022/05/04 10:24:21;;;;;;;5.97;2.20;;;12.70;99.90;;;;;;5057281;28;20052;-72
2022/05/04 10:26:47;;;;;;;3.53;1.60;;;12.90;99.90;;;;;;5095665;28;20068;-70
2022/05/04 10:32:37;;;;;;;5.57;1.77;;;14.00;99.90;;;;;;5088705;28;20094;-71
2022/05/04 10:35:32;;;;;;;7.72;2.17;;;14.40;99.90;;;;;;5042715;28;20242;-71
2022/05/04 10:37:58;;;;;;;4.60;2.20;;;14.50;99.90;;;;;;5042261;28;20044;-72
2022/05/04 10:40:31;;;;;;;3.25;1.80;;;13.70;99.90;;;;;;5075090;28;20244;-71
2022/05/04 10:43:02;;;;;;;4.93;1.70;;;13.40;99.90;;;;;;5084778;28;20040;-71
2022/05/04 10:45:31;;;;;;;4.40;1.90;;;14.10;99.90;;;;;;5045007;28;20124;-69
2022/05/04 10:48:16;;;;;;;3.97;1.63;;;14.30;99.90;;;;;;5052695;28;20281;-69
2022/05/04 10:51:21;;;;;;;7.20;2.20;;;13.70;99.90;;;;;;5075089;28;20122;-71
2022/05/04 10:54:07;;;;;;;5.43;1.83;;;13.00;99.90;;;;;;5042195;28;20389;-71
2022/05/04 10:56:52;;;;;;;6.07;2.22;;;13.40;99.90;;;;;;5053168;28;20040;-71
2022/05/04 10:59:30;;;;;;;;;;;13.20;99.90;;;;;;5042971;28;20040;-71
2022/05/04 11:02:00;;;;;;;8.32;2.10;;;12.80;99.90;;;;;;5082797;28;20284;-72
2022/05/04 11:04:26;;;;;;;5.72;1.98;;;13.60;99.90;;;;;;5073137;28;20040;-73
2022/05/04 11:06:58;;;;;;;3.30;1.83;;;14.30;99.90;;;;;;5059084;28;20230;-72
2022/05/04 11:09:43;;;;;;;5.80;2.08;;;14.70;99.90;;;;;;5046633;28;20231;-70
2022/05/04 11:12:11;;;;;;;4.60;1.60;;;14.40;99.90;;;;;;5074218;28;20100;-70
2022/05/04 11:14:37;;;;;;;5.20;2.08;;;14.90;98.90;;;;;;5058443;28;20112;-71
2022/05/04 11:17:13;;;;;;;5.35;2.47;;;15.30;99.90;;;;;;5045461;28;20040;-71
2022/05/04 11:19:47;;;;;;;4.40;1.70;;;15.00;99.90;;;;;;5045573;28;20037;-70
2022/05/04 11:22:14;;;;;;;5.43;1.95;;;14.60;99.90;;;;;;5074626;28;20037;-72
2022/05/04 11:24:40;;;;;;;5.70;2.17;;;14.50;99.90;;;;;;5072983;28;20052;-72
2022/05/04 11:27:06;;;;;;;5.90;2.00;;;13.80;99.90;;;;;;5049684;28;20032;-71
2022/05/04 11:29:33;;;;;;;7.15;2.40;;;14.00;99.90;;;;;;5046983;28;20075;-70
2022/05/04 11:32:02;;;;;;;4.22;1.85;;;14.30;99.90;;;;;;5073155;28;20045;-72
2022/05/04 11:34:31;;;;;;;7.68;2.53;;;14.40;99.90;;;;;;5029158;28;20040;-72
2022/05/04 11:36:58;;;;;;;6.30;1.95;;;14.70;99.90;;;;;;5076624;28;20067;-70
2022/05/04 11:39:26;;;;;;;5.95;2.05;;;14.20;99.90;;;;;;5054277;28;20346;-71
2022/05/04 11:41:54;;;;;;;6.50;2.30;;;14.50;99.90;;;;;;5042257;28;20044;-71
2022/05/04 11:44:21;;;;;;;3.97;2.22;;;14.60;99.90;;;;;;5074576;28;20248;-72
2022/05/04 11:46:48;;;;;;;6.70;1.90;;;14.60;99.90;;;;;;5070454;28;20048;-72
2022/05/04 11:49:14;;;;;;;3.67;1.80;;;15.30;99.90;;;;;;5036387;28;20041;-69
2022/05/04 11:51:41;;;;;;;4.90;1.70;;;14.90;99.90;;;;;;5037796;28;20167;-71
2022/05/04 11:54:07;;;;;;;6.28;1.80;;;15.00;99.90;;;;;;5069901;28;20076;-70
2022/05/04 11:56:36;;;;;;;8.25;2.15;;;14.80;99.90;;;;;;5031668;28;20252;-69
2022/05/04 11:59:03;;;;;;;5.35;1.98;;;15.40;99.90;;;;;;5024683;28;20223;-71
2022/05/04 12:01:29;;;;;;;4.18;1.75;;;15.20;99.90;;;;;;5033202;28;20104;-71
2022/05/04 12:03:56;;;;;;;5.90;2.35;;;15.40;99.90;;;;;;5028049;28;20041;-73
2022/05/04 12:06:22;;;;;;;5.60;2.08;;;16.00;97.70;;;;;;5057053;28;20072;-72
2022/05/04 12:08:49;;;;;;;2.83;1.52;;;15.70;92.60;;;;;;5040185;28;20064;-71
2022/05/04 12:11:16;;;;;;;4.97;2.00;;;16.00;96.30;;;;;;5049037;28;20033;-73
2022/05/04 12:13:43;;;;;;;3.40;1.75;;;16.00;93.70;;;;;;5074293;28;20268;-70
2022/05/04 12:16:11;;;;;;;3.88;1.90;;;16.10;95.20;;;;;;5076718;28;20040;-71
2022/05/04 12:18:38;;;;;;;4.00;1.90;;;16.10;87.80;;;;;;5076332;28;20040;-73
2022/05/04 12:21:16;;;;;;;4.30;1.70;;;16.00;92.90;;;;;;5043620;28;20029;-70
2022/05/04 12:23:47;;;;;;;5.45;2.10;;;16.30;96.70;;;;;;5047773;28;20049;-71
2022/05/04 12:26:13;;;;;;;4.63;2.10;;;16.80;94.20;;;;;;5049029;28;20143;-71
2022/05/04 12:33:08;;;;;;;6.85;2.20;;;16.30;85.70;;;;;;5027713;28;20057;-71
2022/05/04 12:34:15;;;;;;;4.03;1.90;;;16.00;95.00;;;;;;5076640;28;20079;-71
2022/05/04 12:36:44;;;;;;;5.70;2.10;;;15.90;97.30;;;;;;5046520;28;20318;-73
2022/05/04 12:39:10;;;;;;;5.40;2.00;;;16.50;95.00;;;;;;5045770;28;20347;-73
2022/05/04 12:41:36;;;;;;;5.40;1.90;;;16.60;95.80;;;;;;5029350;28;20041;-71
2022/05/04 12:44:06;;;;;;;5.53;1.88;;;16.60;96.30;;;;;;5047143;28;20067;-71
2022/05/04 12:46:32;;;;;;;4.05;2.00;;;16.10;98.40;;;;;;5077819;28;20044;-73
2022/05/04 12:48:58;;;;;;;6.85;2.28;;;16.20;98.50;;;;;;5047129;28;20044;-73
2022/05/04 12:51:24;;;;;;;6.70;2.15;;;16.30;97.10;;;;;;5034881;28;20044;-72
2022/05/04 12:53:51;;;;;;;7.70;2.17;;;16.10;97.70;;;;;;5077803;28;20045;-71
2022/05/04 12:59:03;;;;;;;5.57;2.28;;;15.50;99.50;;;;;;5049874;28;20051;-71
2022/05/04 13:01:31;;;;;;;7.95;2.40;;;15.20;99.90;;;;;;5083946;28;20048;-72
2022/05/04 13:03:57;;;;;;;5.28;2.20;;;16.00;94.00;;;;;;5078148;28;20218;-71
2022/05/04 13:06:24;;;;;;;6.55;2.25;;;15.90;98.80;;;;;;5064935;28;20393;-71
2022/05/04 13:08:50;;;;;;;4.80;2.20;;;16.30;96.90;;;;;;5049008;28;20085;-70
2022/05/04 13:11:17;;;;;;;6.68;2.38;;;16.90;95.40;;;;;;5045513;28;20071;-71
2022/05/04 13:13:43;;;;;;;5.25;1.98;;;16.70;94.50;;;;;;5078864;28;20126;-71
2022/05/04 13:16:10;;;;;;;7.25;2.20;;;17.20;90.00;;;;;;5044943;28;20071;-72
2022/05/04 13:18:36;;;;;;;5.70;2.42;;;16.90;92.80;;;;;;5040708;28;20051;-71
2022/05/04 13:21:04;;;;;;;3.83;1.92;;;16.00;92.00;;;;;;5061543;28;20637;-71
2022/05/04 13:23:29;;;;;;;4.93;2.20;;;16.60;92.20;;;;;;5061452;28;20315;-70
2022/05/04 13:25:56;;;;;;;4.57;1.67;;;16.50;94.30;;;;;;5038049;28;20086;-72
2022/05/04 13:28:22;;;;;;;4.05;1.90;;;16.20;95.40;;;;;;5082055;28;20036;-71
2022/05/04 13:30:48;;;;;;;4.85;2.15;;;15.90;93.30;;;;;;5066359;28;21064;-70
2022/05/04 13:33:14;;;;;;;6.97;1.95;;;16.30;94.00;;;;;;5039225;28;20071;-70
2022/05/04 13:35:40;;;;;;;7.03;2.10;;;16.30;94.60;;;;;;5075786;28;20094;-70
2022/05/04 13:38:06;;;;;;;6.82;2.00;;;15.90;94.20;;;;;;5045158;28;20047;-72